createdAt,value
2023-02-14T00:01:11.948Z,96.01
2023-02-14T00:04:15.509Z,95.14
2023-02-14T00:07:19.472Z,95.82
2023-02-14T00:10:22.071Z,95.65
2023-02-14T00:13:24.661Z,96.34
2023-02-14T00:16:26.275Z,96.51
2023-02-14T00:19:28.945Z,96.95
2023-02-14T00:22:32.904Z,96.46
2023-02-14T00:25:35.844Z,96.13
2023-02-14T00:28:38.426Z,97.19
2023-02-14T00:31:42.217Z,97.32
2023-02-14T00:34:45.004Z,97.03
2023-02-14T00:38:10.773Z,97.60
2023-02-14T00:41:19.071Z,96.45
2023-02-14T00:44:21.874Z,96.72
2023-02-14T00:47:24.386Z,97.72
2023-02-14T00:50:26.913Z,97.17
2023-02-14T00:53:30.767Z,97.11
2023-02-14T00:57:28.750Z,96.99
2023-02-14T01:00:31.459Z,97.21
2023-02-14T01:03:34.489Z,97.33
2023-02-14T01:06:37.210Z,96.33
2023-02-14T01:09:41.280Z,96.30
2023-02-14T01:12:43.784Z,96.30
2023-02-14T01:16:42.718Z,96.92
2023-02-14T01:19:45.278Z,97.65
2023-02-14T01:23:43.365Z,97.16
2023-02-14T01:27:41.080Z,96.89
2023-02-14T01:30:45.036Z,96.12
2023-02-14T01:33:49.249Z,96.48
2023-02-14T01:36:51.925Z,95.63
2023-02-14T01:39:54.496Z,96.42
2023-02-14T01:42:57.330Z,95.59
2023-02-14T01:46:01.305Z,96.27
2023-02-14T01:49:09.432Z,96.56
2023-02-14T01:52:15.778Z,96.56
2023-02-14T01:55:22.896Z,96.26
2023-02-14T01:58:28.177Z,95.87
2023-02-14T02:01:42.595Z,95.46
2023-02-14T02:04:47.598Z,95.41
2023-02-14T02:07:51.198Z,96.00
2023-02-14T02:10:53.790Z,96.53
2023-02-14T02:13:56.808Z,96.02
2023-02-14T02:17:25.850Z,95.49
2023-02-14T02:20:52.959Z,95.59
2023-02-14T02:24:13.352Z,94.65
2023-02-14T02:27:26.429Z,95.73
2023-02-14T02:31:08.930Z,95.29
2023-02-14T02:34:35.313Z,95.57
2023-02-14T02:37:45.671Z,95.94
2023-02-14T02:40:55.868Z,95.38
2023-02-14T02:44:08.301Z,95.15
2023-02-14T02:47:19.678Z,94.61
2023-02-14T02:50:46.856Z,95.26
2023-02-14T02:53:56.584Z,95.15
2023-02-14T02:57:02.480Z,96.12
2023-02-14T03:00:08.602Z,95.55
2023-02-14T03:03:29.522Z,95.42
2023-02-14T03:06:32.495Z,96.19
2023-02-14T03:10:06.508Z,95.71
2023-02-14T03:13:32.294Z,96.03
2023-02-14T03:16:40.536Z,95.78
2023-02-14T03:20:10.179Z,94.90
2023-02-14T03:23:21.560Z,96.39
2023-02-14T03:26:35.450Z,96.66
2023-02-14T03:29:50.571Z,97.52
2023-02-14T03:33:01.255Z,97.11
2023-02-14T03:36:09.892Z,96.08
2023-02-14T03:39:20.543Z,96.67
2023-02-14T03:42:26.955Z,98.25
2023-02-14T03:45:33.722Z,97.79
2023-02-14T03:48:38.845Z,98.37
2023-02-14T03:51:42.892Z,97.64
2023-02-14T03:54:49.421Z,97.90
2023-02-14T03:57:59.669Z,97.93
2023-02-14T04:01:07.610Z,98.49
2023-02-14T04:04:13.101Z,98.24
2023-02-14T04:07:18.833Z,98.80
2023-02-14T04:10:22.462Z,99.03
2023-02-14T04:13:26.512Z,97.94
2023-02-14T04:16:29.339Z,98.64
2023-02-14T04:19:32.051Z,98.44
2023-02-14T04:22:34.643Z,98.13
2023-02-14T04:25:39.374Z,99.18
2023-02-14T04:28:43.338Z,99.09
2023-02-14T04:31:46.004Z,97.97
2023-02-14T04:34:49.165Z,98.62
2023-02-14T04:37:51.777Z,98.36
2023-02-14T04:40:54.363Z,98.25
2023-02-14T04:43:58.298Z,98.25
2023-02-14T04:47:01.268Z,98.61
2023-02-14T04:50:04.284Z,98.61
2023-02-14T04:53:06.856Z,99.00
2023-02-14T04:56:09.546Z,98.82
2023-02-14T04:59:14.612Z,99.50
2023-02-14T05:02:17.311Z,99.42
2023-02-14T05:05:19.930Z,99.33
2023-02-14T05:08:22.484Z,98.54
2023-02-14T05:11:25.316Z,98.20
2023-02-14T05:14:29.336Z,98.35
2023-02-14T05:17:31.951Z,99.14
2023-02-14T05:20:34.563Z,99.81
2023-02-14T05:23:37.421Z,98.68
2023-02-14T05:26:40.900Z,98.74
2023-02-14T05:29:44.821Z,98.79
2023-02-14T05:32:47.398Z,98.93
2023-02-14T05:35:50.003Z,98.47
2023-02-14T05:38:52.886Z,98.82
2023-02-14T05:41:57.933Z,98.79
2023-02-14T05:45:03.256Z,99.43
2023-02-14T05:48:06.603Z,99.93
2023-02-14T05:51:11.408Z,100.00
2023-02-14T05:54:14.001Z,99.53
2023-02-14T05:57:16.641Z,100.00
2023-02-14T06:00:22.331Z,100.00
2023-02-14T06:03:25.419Z,100.00
2023-02-14T06:06:27.994Z,99.99
2023-02-14T06:09:30.630Z,98.93
2023-02-14T06:12:33.213Z,99.26
2023-02-14T06:15:37.541Z,98.13
2023-02-14T06:18:40.133Z,98.99
2023-02-14T06:21:42.790Z,98.40
2023-02-14T06:24:45.367Z,98.36
2023-02-14T06:27:49.473Z,98.04
2023-02-14T06:30:53.630Z,98.58
2023-02-14T06:33:57.061Z,99.11
2023-02-14T06:36:59.648Z,98.74
2023-02-14T06:40:02.634Z,98.35
2023-02-14T06:43:05.238Z,98.23
2023-02-14T06:46:09.216Z,98.28
2023-02-14T06:49:12.038Z,97.84
2023-02-14T06:52:14.620Z,97.96
2023-02-14T06:55:17.252Z,98.70
2023-02-14T06:58:19.943Z,98.33
2023-02-14T07:01:23.927Z,97.53
2023-02-14T07:04:26.570Z,97.60
2023-02-14T07:07:29.185Z,98.21
2023-02-14T07:10:32.888Z,98.25
2023-02-14T07:13:35.472Z,98.33
2023-02-14T07:16:40.065Z,98.73
2023-02-14T07:19:42.672Z,98.65
2023-02-14T07:22:45.686Z,98.76
2023-02-14T07:25:48.258Z,99.28
2023-02-14T07:28:51.505Z,98.66
2023-02-14T07:31:55.598Z,98.71
2023-02-14T07:34:58.349Z,99.26
2023-02-14T07:38:00.929Z,98.92
2023-02-14T07:41:03.821Z,99.10
2023-02-14T07:44:06.456Z,98.80
2023-02-14T07:47:11.415Z,98.65
2023-02-14T07:50:14.008Z,98.46
2023-02-14T07:53:16.596Z,97.54
2023-02-14T07:56:19.216Z,98.71
2023-02-14T07:59:22.713Z,98.33
2023-02-14T08:02:27.709Z,97.91
2023-02-14T08:05:30.375Z,98.29
2023-02-14T08:08:33.310Z,97.41
2023-02-14T08:11:53.240Z,97.59
2023-02-14T08:15:15.843Z,96.74
2023-02-14T08:18:21.075Z,96.13
2023-02-14T08:21:23.701Z,96.58
2023-02-14T08:24:26.764Z,96.08
2023-02-14T08:27:29.384Z,95.66
2023-02-14T08:30:33.199Z,95.44
2023-02-14T08:33:37.222Z,96.24
2023-02-14T08:36:39.843Z,95.49
2023-02-14T08:39:42.466Z,95.21
2023-02-14T08:42:45.026Z,95.60
2023-02-14T08:45:48.431Z,95.36
2023-02-14T08:48:53.399Z,95.19
2023-02-14T08:51:56.089Z,94.23
2023-02-14T08:54:58.986Z,94.53
2023-02-14T08:58:01.623Z,92.41
2023-02-14T09:01:09.562Z,92.22
2023-02-14T09:04:13.742Z,92.17
2023-02-14T09:07:16.403Z,92.72
2023-02-14T09:10:19.576Z,91.52
2023-02-14T09:13:22.181Z,89.70
2023-02-14T09:16:28.752Z,91.31
2023-02-14T09:19:33.089Z,91.96
2023-02-14T09:22:35.761Z,90.01
2023-02-14T09:25:38.325Z,89.56
2023-02-14T09:28:41.279Z,89.67
2023-02-14T09:31:43.962Z,89.95
2023-02-14T09:34:47.995Z,89.65
2023-02-14T09:38:08.067Z,89.63
2023-02-14T09:41:24.628Z,88.71
2023-02-14T09:44:32.950Z,88.03
2023-02-14T09:47:41.548Z,86.61
2023-02-14T09:50:50.647Z,85.78
2023-02-14T09:53:59.932Z,83.92
2023-02-14T09:57:09.766Z,82.23
2023-02-14T10:00:21.016Z,83.72
2023-02-14T10:03:41.842Z,81.32
2023-02-14T10:06:51.541Z,81.73
2023-02-14T10:10:00.588Z,79.36
2023-02-14T10:13:08.619Z,80.14
2023-02-14T10:16:19.349Z,79.63
2023-02-14T10:19:27.001Z,76.87
2023-02-14T10:22:42.698Z,75.62
2023-02-14T10:25:52.504Z,73.87
2023-02-14T10:28:56.816Z,72.16
2023-02-14T10:32:01.205Z,69.11
2023-02-14T10:35:09.372Z,67.71
2023-02-14T10:38:29.080Z,66.15
2023-02-14T10:41:43.248Z,65.52
2023-02-14T10:44:55.640Z,68.95
2023-02-14T10:48:08.288Z,70.53
2023-02-14T10:51:17.782Z,63.82
2023-02-14T10:54:25.787Z,60.89
2023-02-14T10:57:32.864Z,57.83
2023-02-14T11:00:38.512Z,56.05
2023-02-14T11:03:44.275Z,54.26
2023-02-14T11:06:49.074Z,53.23
2023-02-14T11:09:52.988Z,53.66
2023-02-14T11:12:55.627Z,50.85
2023-02-14T11:16:01.640Z,52.50
2023-02-14T11:19:10.792Z,50.31
2023-02-14T11:22:30.208Z,48.36
2023-02-14T11:25:36.482Z,46.89
2023-02-14T11:28:50.051Z,46.41
2023-02-14T11:31:53.105Z,46.94
2023-02-14T11:35:00.598Z,47.67
2023-02-14T11:38:05.366Z,48.13
2023-02-14T11:41:12.423Z,48.00
2023-02-14T11:44:22.496Z,49.56
2023-02-14T11:47:29.262Z,47.90
2023-02-14T11:50:31.889Z,48.09
2023-02-14T11:53:44.943Z,49.69
2023-02-14T11:56:53.748Z,53.30
2023-02-14T11:59:58.060Z,57.84
2023-02-14T12:03:04.680Z,60.21
2023-02-14T12:06:07.556Z,62.80
2023-02-14T12:09:24.551Z,65.74
2023-02-14T12:12:28.754Z,66.00
2023-02-14T12:15:40.947Z,66.09
2023-02-14T12:18:57.137Z,63.64
2023-02-14T12:22:03.982Z,64.65
2023-02-14T12:25:15.304Z,62.23
2023-02-14T12:28:25.786Z,60.74
2023-02-14T12:31:28.575Z,62.14
2023-02-14T12:34:31.239Z,62.02
2023-02-14T12:37:50.825Z,64.36
2023-02-14T12:41:10.368Z,64.91
2023-02-14T12:44:25.612Z,65.49
2023-02-14T12:47:38.537Z,65.48
2023-02-14T12:50:48.520Z,65.97
2023-02-14T12:54:03.326Z,65.28
2023-02-14T12:57:13.951Z,64.94
2023-02-14T13:00:36.017Z,61.51
2023-02-14T13:04:06.937Z,56.14
2023-02-14T13:07:18.768Z,50.59
2023-02-14T13:10:34.618Z,47.42
2023-02-14T13:13:51.233Z,45.32
2023-02-14T13:17:01.698Z,44.85
2023-02-14T13:20:19.002Z,42.86
2023-02-14T13:23:26.586Z,43.62
2023-02-14T13:26:33.385Z,41.00
2023-02-14T13:29:46.423Z,40.99
2023-02-14T13:32:54.355Z,40.52
2023-02-14T13:36:01.182Z,41.49
2023-02-14T13:39:05.199Z,39.22
2023-02-14T13:42:08.432Z,39.96
2023-02-14T13:45:51.814Z,40.12
2023-02-14T13:49:01.383Z,40.50
2023-02-14T13:52:06.273Z,40.25
2023-02-14T13:55:15.439Z,40.71
2023-02-14T13:58:21.637Z,40.22
2023-02-14T14:01:33.940Z,42.24
2023-02-14T14:04:38.898Z,43.87
2023-02-14T14:07:41.496Z,43.47
2023-02-14T14:10:46.373Z,45.58
2023-02-14T14:13:59.765Z,47.36
2023-02-14T14:17:02.798Z,46.91
2023-02-14T14:20:41.689Z,49.87
2023-02-14T14:23:44.329Z,51.33
2023-02-14T14:26:48.720Z,52.88
2023-02-14T14:29:53.387Z,53.51
2023-02-14T14:32:56.400Z,53.21
2023-02-14T14:36:03.025Z,53.87
2023-02-14T14:39:05.656Z,53.89
2023-02-14T14:42:10.740Z,56.22
2023-02-14T14:45:22.972Z,57.19
2023-02-14T14:48:31.571Z,58.82
2023-02-14T14:51:36.778Z,59.80
2023-02-14T14:54:40.674Z,58.73
2023-02-14T14:57:50.495Z,59.93
2023-02-14T15:00:53.194Z,59.70
2023-02-14T15:03:56.195Z,58.71
2023-02-14T15:07:20.833Z,59.19
2023-02-14T15:10:25.669Z,58.07
2023-02-14T15:13:50.763Z,56.88
2023-02-14T15:16:57.494Z,57.62
2023-02-14T15:20:04.374Z,61.39
2023-02-14T15:23:08.841Z,65.01
2023-02-14T15:26:18.693Z,68.27
2023-02-14T15:29:24.402Z,69.32
2023-02-14T15:32:31.079Z,71.10
2023-02-14T15:35:37.320Z,73.21
2023-02-14T15:38:42.828Z,74.31
2023-02-14T15:41:46.638Z,74.97
2023-02-14T15:44:49.350Z,75.88
2023-02-14T15:47:53.920Z,76.44
2023-02-14T15:50:59.678Z,77.28
2023-02-14T15:54:07.817Z,78.81
2023-02-14T15:57:22.160Z,79.29
2023-02-14T16:00:26.687Z,79.25
2023-02-14T16:03:33.585Z,80.14
2023-02-14T16:06:39.147Z,80.82
2023-02-14T16:09:43.128Z,80.73
2023-02-14T16:12:57.209Z,81.34
2023-02-14T16:16:02.255Z,81.56
2023-02-14T16:19:04.843Z,82.29
2023-02-14T16:22:09.269Z,83.36
2023-02-14T16:25:13.339Z,82.93
2023-02-14T16:28:16.588Z,83.09
2023-02-14T16:31:19.523Z,84.08
2023-02-14T16:34:22.896Z,85.30
2023-02-14T16:37:29.278Z,85.21
2023-02-14T16:40:33.470Z,85.73
2023-02-14T16:43:36.089Z,86.09
2023-02-14T16:46:38.708Z,86.02
2023-02-14T16:49:41.951Z,86.64
2023-02-14T16:52:49.454Z,86.20
2023-02-14T16:55:55.886Z,87.34
2023-02-14T16:58:58.776Z,87.52
2023-02-14T17:02:02.212Z,88.47
2023-02-14T17:05:05.311Z,88.24
2023-02-14T17:08:11.091Z,88.13
2023-02-14T17:11:15.331Z,88.38
2023-02-14T17:14:22.997Z,88.54
2023-02-14T17:17:26.018Z,89.83
2023-02-14T17:20:30.306Z,89.56
2023-02-14T17:23:32.908Z,89.56
2023-02-14T17:26:38.049Z,90.29
2023-02-14T17:29:40.695Z,89.81
2023-02-14T17:32:43.798Z,90.75
2023-02-14T17:35:46.592Z,90.52
2023-02-14T17:38:49.525Z,90.43
2023-02-14T17:41:53.489Z,91.00
2023-02-14T17:44:56.057Z,91.52
2023-02-14T17:47:58.621Z,91.75
2023-02-14T17:51:05.165Z,91.95
2023-02-14T17:54:08.128Z,91.64
2023-02-14T17:57:12.630Z,92.32
2023-02-14T18:00:16.803Z,93.33
2023-02-14T18:03:20.251Z,93.25
2023-02-14T18:06:23.248Z,92.97
2023-02-14T18:09:25.910Z,94.11
2023-02-14T18:12:29.956Z,95.09
2023-02-14T18:15:32.524Z,94.54
2023-02-14T18:18:35.352Z,96.58
2023-02-14T18:21:40.034Z,97.96
2023-02-14T18:24:42.755Z,96.29
2023-02-14T18:27:46.714Z,98.87
2023-02-14T18:30:49.486Z,98.92
2023-02-14T18:33:52.125Z,100.00
2023-02-14T18:36:55.476Z,98.52
2023-02-14T18:39:58.091Z,98.58
2023-02-14T18:43:02.146Z,99.37
2023-02-14T18:46:05.676Z,100.00
2023-02-14T18:49:09.425Z,100.00
2023-02-14T18:52:12.018Z,100.00
2023-02-14T18:55:14.647Z,100.00
2023-02-14T18:58:19.381Z,99.26
2023-02-14T19:01:24.288Z,98.83
2023-02-14T19:04:27.015Z,98.84
2023-02-14T19:07:29.580Z,98.32
2023-02-14T19:10:32.336Z,99.03
2023-02-14T19:13:37.288Z,98.81
2023-02-14T19:16:43.705Z,99.56
2023-02-14T19:19:46.324Z,99.47
2023-02-14T19:22:49.541Z,99.33
2023-02-14T19:25:52.294Z,99.69
2023-02-14T19:28:58.727Z,100.00
2023-02-14T19:32:02.118Z,100.00
2023-02-14T19:35:04.859Z,99.36
2023-02-14T19:38:07.443Z,100.00
2023-02-14T19:41:16.549Z,100.00
2023-02-14T19:44:20.547Z,100.00
2023-02-14T19:47:36.546Z,100.00
2023-02-14T19:50:47.412Z,100.00
2023-02-14T19:53:50.457Z,100.00
2023-02-14T19:56:55.959Z,100.00
2023-02-14T20:00:00.168Z,100.00
2023-02-14T20:03:04.113Z,100.00
2023-02-14T20:06:07.374Z,100.00
2023-02-14T20:09:10.493Z,100.00
2023-02-14T20:12:13.601Z,100.00
2023-02-14T20:15:17.572Z,100.00
2023-02-14T20:18:20.234Z,100.00
2023-02-14T20:21:28.065Z,100.00
2023-02-14T20:24:32.546Z,100.00
2023-02-14T20:27:35.348Z,100.00
2023-02-14T20:30:41.174Z,100.00
2023-02-14T20:33:43.843Z,100.00
2023-02-14T20:36:49.441Z,100.00
2023-02-14T20:39:52.029Z,100.00
2023-02-14T20:42:54.624Z,100.00
2023-02-14T20:46:01.025Z,100.00
2023-02-14T20:49:05.993Z,100.00
2023-02-14T20:52:08.612Z,100.00
2023-02-14T20:55:11.365Z,100.00
2023-02-14T20:58:13.995Z,100.00
2023-02-14T21:01:20.090Z,100.00
2023-02-14T21:04:23.383Z,100.00
2023-02-14T21:07:30.592Z,100.00
2023-02-14T21:10:33.234Z,100.00
2023-02-14T21:13:36.370Z,100.00
2023-02-14T21:16:40.288Z,100.00
2023-02-14T21:19:42.876Z,100.00
2023-02-14T21:22:45.489Z,100.00
2023-02-14T21:25:48.054Z,100.00
2023-02-14T21:28:50.631Z,100.00
2023-02-14T21:31:54.739Z,100.00
2023-02-14T21:34:57.435Z,100.00
2023-02-14T21:38:00.036Z,100.00
2023-02-14T21:41:04.971Z,100.00
2023-02-14T21:44:07.661Z,100.00
2023-02-14T21:47:11.579Z,100.00
2023-02-14T21:50:31.326Z,100.00
2023-02-14T21:53:34.351Z,100.00
2023-02-14T21:56:38.818Z,100.00
2023-02-14T21:59:41.690Z,100.00
2023-02-14T22:02:46.023Z,100.00
2023-02-14T22:05:48.669Z,100.00
2023-02-14T22:08:53.760Z,100.00
2023-02-14T22:11:56.367Z,100.00
2023-02-14T22:15:01.157Z,100.00
2023-02-14T22:18:07.149Z,100.00
2023-02-14T22:21:11.587Z,100.00
2023-02-14T22:24:14.443Z,100.00
2023-02-14T22:27:17.153Z,100.00
2023-02-14T22:30:20.172Z,100.00
2023-02-14T22:33:24.335Z,100.00
2023-02-14T22:36:26.976Z,100.00
2023-02-14T22:39:29.597Z,100.00
2023-02-14T22:42:33.030Z,100.00
2023-02-14T22:45:35.605Z,100.00
2023-02-14T22:48:40.288Z,100.00
2023-02-14T22:51:43.718Z,100.00
2023-02-14T22:54:46.311Z,100.00
2023-02-14T22:57:48.900Z,100.00
2023-02-14T23:00:51.505Z,100.00
2023-02-14T23:03:56.895Z,100.00
2023-02-14T23:06:59.555Z,100.00
2023-02-14T23:10:02.245Z,100.00
2023-02-14T23:13:22.232Z,100.00
2023-02-14T23:16:43.037Z,100.00
2023-02-14T23:20:05.089Z,100.00
2023-02-14T23:23:07.669Z,100.00
2023-02-14T23:26:10.248Z,100.00
2023-02-14T23:29:13.049Z,100.00
2023-02-14T23:32:16.470Z,100.00
2023-02-14T23:35:20.480Z,100.00
2023-02-14T23:38:23.076Z,100.00
2023-02-14T23:41:43.072Z,100.00
2023-02-14T23:44:46.765Z,100.00
2023-02-14T23:47:49.785Z,100.00
2023-02-14T23:50:53.726Z,100.00
2023-02-14T23:53:56.436Z,100.00
2023-02-14T23:56:59.114Z,100.00
